sensor_id;sensor_type;location;lat;lon;timestamp;temperature;humidity
46730;DHT22;32476;50.002;11.854;2023-02-28T00:01:33;-4.50;99.90
46730;DHT22;32476;50.002;11.854;2023-02-28T00:03:59;-4.40;99.90
46730;DHT22;32476;50.002;11.854;2023-02-28T00:06:25;-4.40;99.90
46730;DHT22;32476;50.002;11.854;2023-02-28T00:08:53;-4.40;99.90
46730;DHT22;32476;50.002;11.854;2023-02-28T00:11:19;-4.40;99.90
46730;DHT22;32476;50.002;11.854;2023-02-28T00:13:46;-4.40;99.90
46730;DHT22;32476;50.002;11.854;2023-02-28T00:16:17;-4.40;99.90
46730;DHT22;32476;50.002;11.854;2023-02-28T00:18:45;-4.50;99.90
46730;DHT22;32476;50.002;11.854;2023-02-28T00:21:15;-4.50;99.90
46730;DHT22;32476;50.002;11.854;2023-02-28T00:23:41;-4.50;99.90
46730;DHT22;32476;50.002;11.854;2023-02-28T00:26:07;-4.50;99.90
46730;DHT22;32476;50.002;11.854;2023-02-28T00:28:35;-4.50;99.90
46730;DHT22;32476;50.002;11.854;2023-02-28T00:31:01;-4.60;99.90
46730;DHT22;32476;50.002;11.854;2023-02-28T00:33:27;-4.50;99.90
46730;DHT22;32476;50.002;11.854;2023-02-28T00:36:06;-4.50;99.90
46730;DHT22;32476;50.002;11.854;2023-02-28T00:38:33;-4.50;99.90
46730;DHT22;32476;50.002;11.854;2023-02-28T00:41:01;-4.50;99.90
46730;DHT22;32476;50.002;11.854;2023-02-28T00:43:34;-4.60;99.90
46730;DHT22;32476;50.002;11.854;2023-02-28T00:46:02;-4.60;99.90
46730;DHT22;32476;50.002;11.854;2023-02-28T00:48:29;-4.60;99.90
46730;DHT22;32476;50.002;11.854;2023-02-28T00:50:55;-4.60;99.90
46730;DHT22;32476;50.002;11.854;2023-02-28T00:53:22;-4.60;99.90
46730;DHT22;32476;50.002;11.854;2023-02-28T00:55:49;-4.70;99.90
46730;DHT22;32476;50.002;11.854;2023-02-28T00:58:15;-4.70;99.90
46730;DHT22;32476;50.002;11.854;2023-02-28T01:00:43;-4.70;99.90
46730;DHT22;32476;50.002;11.854;2023-02-28T01:03:16;-4.80;99.90
46730;DHT22;32476;50.002;11.854;2023-02-28T01:05:44;-4.80;99.90
46730;DHT22;32476;50.002;11.854;2023-02-28T01:08:11;-4.80;99.90
46730;DHT22;32476;50.002;11.854;2023-02-28T01:10:37;-4.80;99.90
46730;DHT22;32476;50.002;11.854;2023-02-28T01:13:05;-4.80;99.90
46730;DHT22;32476;50.002;11.854;2023-02-28T01:15:31;-4.80;99.90
46730;DHT22;32476;50.002;11.854;2023-02-28T01:17:58;-4.90;99.90
46730;DHT22;32476;50.002;11.854;2023-02-28T01:20:25;-4.90;99.90
46730;DHT22;32476;50.002;11.854;2023-02-28T01:22:51;-4.80;99.90
46730;DHT22;32476;50.002;11.854;2023-02-28T01:25:17;-4.80;99.90
46730;DHT22;32476;50.002;11.854;2023-02-28T01:27:45;-4.80;99.90
46730;DHT22;32476;50.002;11.854;2023-02-28T01:30:11;-4.90;99.90
46730;DHT22;32476;50.002;11.854;2023-02-28T01:32:37;-4.90;99.90
46730;DHT22;32476;50.002;11.854;2023-02-28T01:35:04;-5.00;99.90
46730;DHT22;32476;50.002;11.854;2023-02-28T01:37:31;-4.90;99.90
46730;DHT22;32476;50.002;11.854;2023-02-28T01:39:56;-4.90;99.90
46730;DHT22;32476;50.002;11.854;2023-02-28T01:42:24;-4.90;99.90
46730;DHT22;32476;50.002;11.854;2023-02-28T01:45:00;-4.90;99.90
46730;DHT22;32476;50.002;11.854;2023-02-28T01:47:41;-4.90;99.90
46730;DHT22;32476;50.002;11.854;2023-02-28T01:50:16;-4.90;99.90
46730;DHT22;32476;50.002;11.854;2023-02-28T01:52:49;-4.90;99.90
46730;DHT22;32476;50.002;11.854;2023-02-28T01:55:18;-4.90;99.90
46730;DHT22;32476;50.002;11.854;2023-02-28T01:57:51;-4.90;99.90
46730;DHT22;32476;50.002;11.854;2023-02-28T02:00:24;-5.00;99.90
46730;DHT22;32476;50.002;11.854;2023-02-28T02:02:57;-5.00;99.90
46730;DHT22;32476;50.002;11.854;2023-02-28T02:05:26;-5.00;99.90
46730;DHT22;32476;50.002;11.854;2023-02-28T02:07:57;-5.00;99.90
46730;DHT22;32476;50.002;11.854;2023-02-28T02:10:34;-5.00;99.90
46730;DHT22;32476;50.002;11.854;2023-02-28T02:13:25;-5.00;99.90
46730;DHT22;32476;50.002;11.854;2023-02-28T02:27:57;-5.00;99.90
46730;DHT22;32476;50.002;11.854;2023-02-28T02:31:06;-5.00;99.90
46730;DHT22;32476;50.002;11.854;2023-02-28T02:34:51;-5.00;99.90
46730;DHT22;32476;50.002;11.854;2023-02-28T02:40:16;-5.00;99.90
46730;DHT22;32476;50.002;11.854;2023-02-28T02:42:51;-4.90;99.90
46730;DHT22;32476;50.002;11.854;2023-02-28T02:45:49;-4.90;99.90
46730;DHT22;32476;50.002;11.854;2023-02-28T02:48:24;-4.90;99.90
46730;DHT22;32476;50.002;11.854;2023-02-28T02:50:57;-4.90;99.90
46730;DHT22;32476;50.002;11.854;2023-02-28T02:53:33;-4.90;99.90
46730;DHT22;32476;50.002;11.854;2023-02-28T02:56:02;-4.90;99.90
46730;DHT22;32476;50.002;11.854;2023-02-28T02:58:37;-4.90;99.90
46730;DHT22;32476;50.002;11.854;2023-02-28T03:01:10;-5.00;99.90
46730;DHT22;32476;50.002;11.854;2023-02-28T03:03:40;-5.00;99.90
46730;DHT22;32476;50.002;11.854;2023-02-28T03:06:06;-4.90;99.90
46730;DHT22;32476;50.002;11.854;2023-02-28T03:08:37;-4.90;99.90
46730;DHT22;32476;50.002;11.854;2023-02-28T03:11:10;-4.90;99.90
46730;DHT22;32476;50.002;11.854;2023-02-28T03:13:54;-4.90;99.90
46730;DHT22;32476;50.002;11.854;2023-02-28T03:19:21;-4.80;99.90
46730;DHT22;32476;50.002;11.854;2023-02-28T03:22:14;-4.90;99.90
46730;DHT22;32476;50.002;11.854;2023-02-28T03:24:55;-4.90;99.90
46730;DHT22;32476;50.002;11.854;2023-02-28T03:27:39;-4.90;99.90
46730;DHT22;32476;50.002;11.854;2023-02-28T03:30:29;-4.90;99.90
46730;DHT22;32476;50.002;11.854;2023-02-28T03:33:24;-4.90;99.90
46730;DHT22;32476;50.002;11.854;2023-02-28T03:36:01;-4.90;99.90
46730;DHT22;32476;50.002;11.854;2023-02-28T03:38:50;-4.90;99.90
46730;DHT22;32476;50.002;11.854;2023-02-28T03:41:25;-4.90;99.90
46730;DHT22;32476;50.002;11.854;2023-02-28T03:44:03;-4.90;99.90
46730;DHT22;32476;50.002;11.854;2023-02-28T03:49:36;-4.90;99.90
46730;DHT22;32476;50.002;11.854;2023-02-28T03:52:09;-4.90;99.90
46730;DHT22;32476;50.002;11.854;2023-02-28T03:54:47;-4.90;99.90
46730;DHT22;32476;50.002;11.854;2023-02-28T04:00:30;-4.90;99.90
46730;DHT22;32476;50.002;11.854;2023-02-28T04:03:00;-4.90;99.90
46730;DHT22;32476;50.002;11.854;2023-02-28T04:05:29;-4.90;99.90
46730;DHT22;32476;50.002;11.854;2023-02-28T04:08:04;-4.90;99.90
46730;DHT22;32476;50.002;11.854;2023-02-28T04:10:33;-4.90;99.90
46730;DHT22;32476;50.002;11.854;2023-02-28T04:12:58;-4.90;99.90
46730;DHT22;32476;50.002;11.854;2023-02-28T04:15:24;-5.00;99.90
46730;DHT22;32476;50.002;11.854;2023-02-28T04:17:54;-5.00;99.90
46730;DHT22;32476;50.002;11.854;2023-02-28T04:20:20;-5.00;99.90
46730;DHT22;32476;50.002;11.854;2023-02-28T04:22:46;-5.00;99.90
46730;DHT22;32476;50.002;11.854;2023-02-28T04:25:13;-4.90;99.90
46730;DHT22;32476;50.002;11.854;2023-02-28T04:27:39;-4.90;99.90
46730;DHT22;32476;50.002;11.854;2023-02-28T04:30:06;-4.90;99.90
46730;DHT22;32476;50.002;11.854;2023-02-28T04:32:34;-4.90;99.90
46730;DHT22;32476;50.002;11.854;2023-02-28T04:35:00;-4.90;99.90
46730;DHT22;32476;50.002;11.854;2023-02-28T04:37:26;-4.90;99.90
46730;DHT22;32476;50.002;11.854;2023-02-28T04:39:55;-4.90;99.90
46730;DHT22;32476;50.002;11.854;2023-02-28T04:42:21;-4.90;99.90
46730;DHT22;32476;50.002;11.854;2023-02-28T04:44:47;-4.90;99.90
46730;DHT22;32476;50.002;11.854;2023-02-28T04:47:14;-4.90;99.90
46730;DHT22;32476;50.002;11.854;2023-02-28T04:49:40;-4.90;99.90
46730;DHT22;32476;50.002;11.854;2023-02-28T04:52:06;-4.90;99.90
46730;DHT22;32476;50.002;11.854;2023-02-28T04:54:34;-5.00;99.90
46730;DHT22;32476;50.002;11.854;2023-02-28T04:57:00;-4.90;99.90
46730;DHT22;32476;50.002;11.854;2023-02-28T04:59:27;-5.00;99.90
46730;DHT22;32476;50.002;11.854;2023-02-28T05:01:54;-5.00;99.90
46730;DHT22;32476;50.002;11.854;2023-02-28T05:04:20;-5.00;99.90
46730;DHT22;32476;50.002;11.854;2023-02-28T05:06:47;-5.00;99.90
46730;DHT22;32476;50.002;11.854;2023-02-28T05:09:14;-5.00;99.90
46730;DHT22;32476;50.002;11.854;2023-02-28T05:11:40;-5.00;99.90
46730;DHT22;32476;50.002;11.854;2023-02-28T05:14:11;-5.00;99.90
46730;DHT22;32476;50.002;11.854;2023-02-28T05:16:40;-5.00;99.90
46730;DHT22;32476;50.002;11.854;2023-02-28T05:19:06;-5.00;99.90
46730;DHT22;32476;50.002;11.854;2023-02-28T05:21:34;-5.00;99.90
46730;DHT22;32476;50.002;11.854;2023-02-28T05:24:05;-5.00;99.90
46730;DHT22;32476;50.002;11.854;2023-02-28T05:26:35;-4.90;99.90
46730;DHT22;32476;50.002;11.854;2023-02-28T05:29:04;-5.00;99.90
46730;DHT22;32476;50.002;11.854;2023-02-28T05:31:30;-5.00;99.90
46730;DHT22;32476;50.002;11.854;2023-02-28T05:33:56;-4.90;99.90
46730;DHT22;32476;50.002;11.854;2023-02-28T05:36:24;-4.90;99.90
46730;DHT22;32476;50.002;11.854;2023-02-28T05:38:51;-4.90;99.90
46730;DHT22;32476;50.002;11.854;2023-02-28T05:41:19;-4.90;99.90
46730;DHT22;32476;50.002;11.854;2023-02-28T05:43:47;-4.90;99.90
46730;DHT22;32476;50.002;11.854;2023-02-28T05:46:14;-4.90;99.90
46730;DHT22;32476;50.002;11.854;2023-02-28T05:48:41;-4.90;99.90
46730;DHT22;32476;50.002;11.854;2023-02-28T05:51:09;-4.90;99.90
46730;DHT22;32476;50.002;11.854;2023-02-28T05:53:35;-4.90;99.90
46730;DHT22;32476;50.002;11.854;2023-02-28T05:56:02;-4.90;99.90
46730;DHT22;32476;50.002;11.854;2023-02-28T05:58:30;-4.90;99.90
46730;DHT22;32476;50.002;11.854;2023-02-28T06:00:58;-4.90;99.90
46730;DHT22;32476;50.002;11.854;2023-02-28T06:03:25;-4.90;99.90
46730;DHT22;32476;50.002;11.854;2023-02-28T06:05:52;-4.80;99.90
46730;DHT22;32476;50.002;11.854;2023-02-28T06:08:18;-4.80;99.90
46730;DHT22;32476;50.002;11.854;2023-02-28T06:10:44;-4.80;99.90
46730;DHT22;32476;50.002;11.854;2023-02-28T06:13:12;-4.70;99.90
46730;DHT22;32476;50.002;11.854;2023-02-28T06:15:38;-4.70;99.90
46730;DHT22;32476;50.002;11.854;2023-02-28T06:18:04;-4.70;99.90
46730;DHT22;32476;50.002;11.854;2023-02-28T06:20:32;-4.70;99.90
46730;DHT22;32476;50.002;11.854;2023-02-28T06:22:59;-4.60;99.90
46730;DHT22;32476;50.002;11.854;2023-02-28T06:25:26;-4.60;99.90
46730;DHT22;32476;50.002;11.854;2023-02-28T06:27:54;-4.60;99.90
46730;DHT22;32476;50.002;11.854;2023-02-28T06:30:21;-4.50;99.90
46730;DHT22;32476;50.002;11.854;2023-02-28T06:32:50;-4.50;99.90
46730;DHT22;32476;50.002;11.854;2023-02-28T06:35:18;-4.50;99.90
46730;DHT22;32476;50.002;11.854;2023-02-28T06:37:44;-4.40;99.90
46730;DHT22;32476;50.002;11.854;2023-02-28T06:40:11;-4.40;99.90
46730;DHT22;32476;50.002;11.854;2023-02-28T06:42:40;-4.40;99.90
46730;DHT22;32476;50.002;11.854;2023-02-28T06:45:07;-4.40;99.90
46730;DHT22;32476;50.002;11.854;2023-02-28T06:47:35;-4.40;99.90
46730;DHT22;32476;50.002;11.854;2023-02-28T06:50:04;-4.40;99.90
46730;DHT22;32476;50.002;11.854;2023-02-28T06:52:31;-4.30;99.90
46730;DHT22;32476;50.002;11.854;2023-02-28T06:54:57;-4.20;99.90
46730;DHT22;32476;50.002;11.854;2023-02-28T06:57:32;-4.20;99.90
46730;DHT22;32476;50.002;11.854;2023-02-28T07:00:00;-4.20;99.90
46730;DHT22;32476;50.002;11.854;2023-02-28T07:02:28;-4.20;99.90
46730;DHT22;32476;50.002;11.854;2023-02-28T07:04:54;-4.10;99.90
46730;DHT22;32476;50.002;11.854;2023-02-28T07:07:20;-4.10;99.90
46730;DHT22;32476;50.002;11.854;2023-02-28T07:09:48;-4.00;99.90
46730;DHT22;32476;50.002;11.854;2023-02-28T07:12:14;-4.00;99.90
46730;DHT22;32476;50.002;11.854;2023-02-28T07:14:39;-3.90;99.90
46730;DHT22;32476;50.002;11.854;2023-02-28T07:17:09;-3.90;99.90
46730;DHT22;32476;50.002;11.854;2023-02-28T07:19:38;-3.80;99.90
46730;DHT22;32476;50.002;11.854;2023-02-28T07:22:05;-3.80;99.90
46730;DHT22;32476;50.002;11.854;2023-02-28T07:24:33;-3.70;99.90
46730;DHT22;32476;50.002;11.854;2023-02-28T07:27:00;-3.70;99.90
46730;DHT22;32476;50.002;11.854;2023-02-28T07:29:27;-3.60;99.90
46730;DHT22;32476;50.002;11.854;2023-02-28T07:31:54;-3.60;99.90
46730;DHT22;32476;50.002;11.854;2023-02-28T07:34:21;-3.50;99.90
46730;DHT22;32476;50.002;11.854;2023-02-28T07:36:47;-3.50;99.90
46730;DHT22;32476;50.002;11.854;2023-02-28T07:39:14;-3.40;99.90
46730;DHT22;32476;50.002;11.854;2023-02-28T07:41:40;-3.40;99.90
46730;DHT22;32476;50.002;11.854;2023-02-28T07:44:10;-3.40;99.90
46730;DHT22;32476;50.002;11.854;2023-02-28T07:46:38;-3.30;99.90
46730;DHT22;32476;50.002;11.854;2023-02-28T07:49:04;-3.50;99.90
46730;DHT22;32476;50.002;11.854;2023-02-28T07:51:30;-3.30;99.90
46730;DHT22;32476;50.002;11.854;2023-02-28T07:53:58;-3.30;99.90
46730;DHT22;32476;50.002;11.854;2023-02-28T07:56:24;-3.20;99.90
46730;DHT22;32476;50.002;11.854;2023-02-28T07:58:50;-3.10;99.90
46730;DHT22;32476;50.002;11.854;2023-02-28T08:01:17;-3.00;99.90
46730;DHT22;32476;50.002;11.854;2023-02-28T08:03:45;-2.90;99.90
46730;DHT22;32476;50.002;11.854;2023-02-28T08:06:17;-2.90;99.90
46730;DHT22;32476;50.002;11.854;2023-02-28T08:08:46;-2.90;99.90
46730;DHT22;32476;50.002;11.854;2023-02-28T08:11:12;-3.00;99.90
46730;DHT22;32476;50.002;11.854;2023-02-28T08:13:39;-2.80;99.90
46730;DHT22;32476;50.002;11.854;2023-02-28T08:16:06;-2.60;99.90
46730;DHT22;32476;50.002;11.854;2023-02-28T08:18:32;-2.80;99.90
46730;DHT22;32476;50.002;11.854;2023-02-28T08:20:59;-2.80;99.90
46730;DHT22;32476;50.002;11.854;2023-02-28T08:23:33;-3.00;99.90
46730;DHT22;32476;50.002;11.854;2023-02-28T08:25:59;-2.70;99.90
46730;DHT22;32476;50.002;11.854;2023-02-28T08:28:25;-2.60;99.90
46730;DHT22;32476;50.002;11.854;2023-02-28T08:30:52;-2.60;99.90
46730;DHT22;32476;50.002;11.854;2023-02-28T08:33:19;-2.50;99.90
46730;DHT22;32476;50.002;11.854;2023-02-28T08:35:45;-2.60;99.90
46730;DHT22;32476;50.002;11.854;2023-02-28T08:38:13;-2.60;99.90
46730;DHT22;32476;50.002;11.854;2023-02-28T08:40:39;-2.40;99.90
46730;DHT22;32476;50.002;11.854;2023-02-28T08:43:05;-2.40;99.90
46730;DHT22;32476;50.002;11.854;2023-02-28T08:45:33;-2.30;99.90
46730;DHT22;32476;50.002;11.854;2023-02-28T08:47:59;-2.00;99.90
46730;DHT22;32476;50.002;11.854;2023-02-28T08:50:24;-1.90;99.90
46730;DHT22;32476;50.002;11.854;2023-02-28T08:52:52;-1.80;99.90
46730;DHT22;32476;50.002;11.854;2023-02-28T08:55:18;-2.10;99.90
46730;DHT22;32476;50.002;11.854;2023-02-28T08:57:44;-1.80;99.90
46730;DHT22;32476;50.002;11.854;2023-02-28T09:00:12;-1.50;99.90
46730;DHT22;32476;50.002;11.854;2023-02-28T09:02:40;-0.90;99.90
46730;DHT22;32476;50.002;11.854;2023-02-28T09:05:22;-1.40;99.90
46730;DHT22;32476;50.002;11.854;2023-02-28T09:07:49;-1.20;99.90
46730;DHT22;32476;50.002;11.854;2023-02-28T09:10:17;-1.20;99.90
46730;DHT22;32476;50.002;11.854;2023-02-28T09:12:43;-1.00;99.90
46730;DHT22;32476;50.002;11.854;2023-02-28T09:15:12;-1.10;99.90
46730;DHT22;32476;50.002;11.854;2023-02-28T09:17:39;-0.90;99.90
46730;DHT22;32476;50.002;11.854;2023-02-28T09:20:06;-0.90;99.90
46730;DHT22;32476;50.002;11.854;2023-02-28T09:22:32;-1.40;99.90
46730;DHT22;32476;50.002;11.854;2023-02-28T09:25:00;-1.50;99.90
46730;DHT22;32476;50.002;11.854;2023-02-28T09:27:26;-1.70;99.90
46730;DHT22;32476;50.002;11.854;2023-02-28T09:29:51;-1.20;99.90
46730;DHT22;32476;50.002;11.854;2023-02-28T09:32:19;-1.40;99.90
46730;DHT22;32476;50.002;11.854;2023-02-28T09:34:45;-1.40;99.90
46730;DHT22;32476;50.002;11.854;2023-02-28T09:37:11;-1.00;99.90
46730;DHT22;32476;50.002;11.854;2023-02-28T09:39:38;-1.20;99.90
46730;DHT22;32476;50.002;11.854;2023-02-28T09:42:04;-0.60;99.90
46730;DHT22;32476;50.002;11.854;2023-02-28T09:44:39;-0.90;99.90
46730;DHT22;32476;50.002;11.854;2023-02-28T09:47:42;-1.10;99.90
46730;DHT22;32476;50.002;11.854;2023-02-28T09:52:45;-1.20;99.90
46730;DHT22;32476;50.002;11.854;2023-02-28T09:55:29;-1.30;99.90
46730;DHT22;32476;50.002;11.854;2023-02-28T09:58:00;-1.20;99.90
46730;DHT22;32476;50.002;11.854;2023-02-28T10:00:38;-0.70;99.90
46730;DHT22;32476;50.002;11.854;2023-02-28T10:03:25;-1.20;99.90
46730;DHT22;32476;50.002;11.854;2023-02-28T10:11:40;-0.50;99.90
46730;DHT22;32476;50.002;11.854;2023-02-28T10:14:21;-0.90;99.90
46730;DHT22;32476;50.002;11.854;2023-02-28T10:17:21;-0.70;99.90
46730;DHT22;32476;50.002;11.854;2023-02-28T10:26:01;0.60;99.90
46730;DHT22;32476;50.002;11.854;2023-02-28T10:28:34;0.90;99.90
46730;DHT22;32476;50.002;11.854;2023-02-28T10:31:02;0.50;99.90
46730;DHT22;32476;50.002;11.854;2023-02-28T10:33:35;0.40;99.90
46730;DHT22;32476;50.002;11.854;2023-02-28T10:36:04;0.30;99.90
46730;DHT22;32476;50.002;11.854;2023-02-28T10:38:37;0.50;99.90
46730;DHT22;32476;50.002;11.854;2023-02-28T10:41:26;0.10;99.90
46730;DHT22;32476;50.002;11.854;2023-02-28T10:44:13;0.60;99.90
46730;DHT22;32476;50.002;11.854;2023-02-28T10:46:42;0.00;99.90
46730;DHT22;32476;50.002;11.854;2023-02-28T10:49:21;-0.10;99.90
46730;DHT22;32476;50.002;11.854;2023-02-28T10:51:52;-0.20;99.90
46730;DHT22;32476;50.002;11.854;2023-02-28T10:54:36;-0.30;99.90
46730;DHT22;32476;50.002;11.854;2023-02-28T10:57:20;-0.10;99.90
46730;DHT22;32476;50.002;11.854;2023-02-28T10:59:52;-0.60;99.90
46730;DHT22;32476;50.002;11.854;2023-02-28T11:02:34;-0.30;99.90
46730;DHT22;32476;50.002;11.854;2023-02-28T11:05:01;-0.70;99.90
46730;DHT22;32476;50.002;11.854;2023-02-28T11:07:29;-0.80;99.90
46730;DHT22;32476;50.002;11.854;2023-02-28T11:09:57;-0.50;99.90
46730;DHT22;32476;50.002;11.854;2023-02-28T11:12:31;-0.70;99.90
46730;DHT22;32476;50.002;11.854;2023-02-28T11:15:06;-1.30;99.90
46730;DHT22;32476;50.002;11.854;2023-02-28T11:18:20;-0.90;99.90
46730;DHT22;32476;50.002;11.854;2023-02-28T11:20:59;-0.20;99.90
46730;DHT22;32476;50.002;11.854;2023-02-28T11:23:30;-0.10;99.90
46730;DHT22;32476;50.002;11.854;2023-02-28T11:26:01;0.00;99.90
46730;DHT22;32476;50.002;11.854;2023-02-28T11:28:35;0.00;99.90
46730;DHT22;32476;50.002;11.854;2023-02-28T11:33:47;0.10;99.90
46730;DHT22;32476;50.002;11.854;2023-02-28T11:36:21;0.40;99.90
46730;DHT22;32476;50.002;11.854;2023-02-28T11:38:59;0.60;99.90
46730;DHT22;32476;50.002;11.854;2023-02-28T11:41:59;0.00;99.90
46730;DHT22;32476;50.002;11.854;2023-02-28T11:45:02;0.60;99.90
46730;DHT22;32476;50.002;11.854;2023-02-28T11:48:20;-0.20;99.90
46730;DHT22;32476;50.002;11.854;2023-02-28T11:54:02;0.50;99.90
46730;DHT22;32476;50.002;11.854;2023-02-28T11:56:39;0.60;99.90
46730;DHT22;32476;50.002;11.854;2023-02-28T12:14:39;1.20;99.90
46730;DHT22;32476;50.002;11.854;2023-02-28T12:20:46;0.90;99.90
46730;DHT22;32476;50.002;11.854;2023-02-28T12:34:42;0.90;99.90
46730;DHT22;32476;50.002;11.854;2023-02-28T12:37:23;1.40;99.90
46730;DHT22;32476;50.002;11.854;2023-02-28T12:40:01;1.70;99.90
46730;DHT22;32476;50.002;11.854;2023-02-28T12:42:36;1.30;99.90
46730;DHT22;32476;50.002;11.854;2023-02-28T12:47:50;1.80;99.00
46730;DHT22;32476;50.002;11.854;2023-02-28T12:50:19;1.70;99.90
46730;DHT22;32476;50.002;11.854;2023-02-28T12:53:03;2.20;98.70
46730;DHT22;32476;50.002;11.854;2023-02-28T12:55:50;1.70;97.80
46730;DHT22;32476;50.002;11.854;2023-02-28T12:58:41;1.70;99.90
46730;DHT22;32476;50.002;11.854;2023-02-28T13:10:48;2.40;97.30
46730;DHT22;32476;50.002;11.854;2023-02-28T13:13:23;3.00;95.40
46730;DHT22;32476;50.002;11.854;2023-02-28T13:16:09;3.10;96.30
46730;DHT22;32476;50.002;11.854;2023-02-28T13:18:43;3.40;93.30
46730;DHT22;32476;50.002;11.854;2023-02-28T13:21:28;3.20;94.70
46730;DHT22;32476;50.002;11.854;2023-02-28T13:24:02;3.50;96.50
46730;DHT22;32476;50.002;11.854;2023-02-28T13:34:34;3.50;91.80
46730;DHT22;32476;50.002;11.854;2023-02-28T13:39:57;2.90;93.20
46730;DHT22;32476;50.002;11.854;2023-02-28T13:42:35;2.90;93.60
46730;DHT22;32476;50.002;11.854;2023-02-28T13:45:19;3.00;93.60
46730;DHT22;32476;50.002;11.854;2023-02-28T13:48:00;3.30;96.30
46730;DHT22;32476;50.002;11.854;2023-02-28T13:50:36;3.60;96.10
46730;DHT22;32476;50.002;11.854;2023-02-28T13:59:14;3.30;94.10
46730;DHT22;32476;50.002;11.854;2023-02-28T14:08:04;3.10;94.80
46730;DHT22;32476;50.002;11.854;2023-02-28T14:10:39;3.10;93.90
46730;DHT22;32476;50.002;11.854;2023-02-28T14:16:11;2.90;93.20
46730;DHT22;32476;50.002;11.854;2023-02-28T14:18:47;3.10;94.60
46730;DHT22;32476;50.002;11.854;2023-02-28T14:21:26;2.40;93.70
46730;DHT22;32476;50.002;11.854;2023-02-28T14:24:23;3.10;94.90
46730;DHT22;32476;50.002;11.854;2023-02-28T14:33:19;2.80;95.10
46730;DHT22;32476;50.002;11.854;2023-02-28T14:36:26;2.30;96.50
46730;DHT22;32476;50.002;11.854;2023-02-28T14:38:57;2.30;96.20
46730;DHT22;32476;50.002;11.854;2023-02-28T14:41:35;2.70;98.30
46730;DHT22;32476;50.002;11.854;2023-02-28T14:44:25;2.80;96.80
46730;DHT22;32476;50.002;11.854;2023-02-28T14:46:55;2.20;95.90
46730;DHT22;32476;50.002;11.854;2023-02-28T14:49:28;2.40;98.70
46730;DHT22;32476;50.002;11.854;2023-02-28T14:52:07;2.40;96.20
46730;DHT22;32476;50.002;11.854;2023-02-28T14:54:43;2.00;98.50
46730;DHT22;32476;50.002;11.854;2023-02-28T14:57:31;2.30;97.90
46730;DHT22;32476;50.002;11.854;2023-02-28T15:03:32;1.80;98.20
46730;DHT22;32476;50.002;11.854;2023-02-28T15:06:19;1.90;99.10
46730;DHT22;32476;50.002;11.854;2023-02-28T15:08:47;1.20;98.30
46730;DHT22;32476;50.002;11.854;2023-02-28T15:11:18;1.20;99.40
46730;DHT22;32476;50.002;11.854;2023-02-28T15:13:50;1.50;99.90
46730;DHT22;32476;50.002;11.854;2023-02-28T15:16:21;1.80;99.40
46730;DHT22;32476;50.002;11.854;2023-02-28T15:18:57;2.10;99.90
46730;DHT22;32476;50.002;11.854;2023-02-28T15:21:28;1.80;98.00
46730;DHT22;32476;50.002;11.854;2023-02-28T15:24:37;1.80;99.90
46730;DHT22;32476;50.002;11.854;2023-02-28T15:27:10;2.00;99.90
46730;DHT22;32476;50.002;11.854;2023-02-28T15:29:46;2.00;98.90
46730;DHT22;32476;50.002;11.854;2023-02-28T15:32:34;1.70;99.60
46730;DHT22;32476;50.002;11.854;2023-02-28T15:38:01;1.90;99.50
46730;DHT22;32476;50.002;11.854;2023-02-28T15:40:56;1.90;99.90
46730;DHT22;32476;50.002;11.854;2023-02-28T15:43:28;1.70;99.60
46730;DHT22;32476;50.002;11.854;2023-02-28T15:46:11;1.80;99.60
46730;DHT22;32476;50.002;11.854;2023-02-28T15:48:53;1.90;99.90
46730;DHT22;32476;50.002;11.854;2023-02-28T15:51:25;1.50;99.90
46730;DHT22;32476;50.002;11.854;2023-02-28T15:54:03;1.50;99.90
46730;DHT22;32476;50.002;11.854;2023-02-28T15:56:45;1.20;99.90
46730;DHT22;32476;50.002;11.854;2023-02-28T15:59:51;1.60;99.90
46730;DHT22;32476;50.002;11.854;2023-02-28T16:02:36;1.50;99.90
46730;DHT22;32476;50.002;11.854;2023-02-28T16:07:34;1.50;99.90
46730;DHT22;32476;50.002;11.854;2023-02-28T16:10:01;1.30;99.90
46730;DHT22;32476;50.002;11.854;2023-02-28T16:12:29;1.40;99.90
46730;DHT22;32476;50.002;11.854;2023-02-28T16:15:02;1.10;99.90
46730;DHT22;32476;50.002;11.854;2023-02-28T16:17:35;1.00;99.90
46730;DHT22;32476;50.002;11.854;2023-02-28T16:20:16;0.70;99.90
46730;DHT22;32476;50.002;11.854;2023-02-28T16:22:50;0.70;99.90
46730;DHT22;32476;50.002;11.854;2023-02-28T16:25:20;0.40;99.90
46730;DHT22;32476;50.002;11.854;2023-02-28T16:27:50;0.40;99.90
46730;DHT22;32476;50.002;11.854;2023-02-28T16:30:26;0.40;99.90
46730;DHT22;32476;50.002;11.854;2023-02-28T16:32:55;0.50;99.90
46730;DHT22;32476;50.002;11.854;2023-02-28T16:35:23;0.40;99.90
46730;DHT22;32476;50.002;11.854;2023-02-28T16:37:51;0.20;99.90
46730;DHT22;32476;50.002;11.854;2023-02-28T16:40:24;0.10;99.90
46730;DHT22;32476;50.002;11.854;2023-02-28T16:42:56;-0.10;99.90
46730;DHT22;32476;50.002;11.854;2023-02-28T16:45:26;-0.30;99.90
46730;DHT22;32476;50.002;11.854;2023-02-28T16:47:56;-0.40;99.90
46730;DHT22;32476;50.002;11.854;2023-02-28T16:50:25;-0.50;99.90
46730;DHT22;32476;50.002;11.854;2023-02-28T16:52:52;-0.70;99.90
46730;DHT22;32476;50.002;11.854;2023-02-28T16:55:22;-0.80;99.90
46730;DHT22;32476;50.002;11.854;2023-02-28T16:58:00;-0.80;99.90
46730;DHT22;32476;50.002;11.854;2023-02-28T17:00:29;-0.80;99.90
46730;DHT22;32476;50.002;11.854;2023-02-28T17:02:58;-0.90;99.90
46730;DHT22;32476;50.002;11.854;2023-02-28T17:05:26;-0.90;99.90
46730;DHT22;32476;50.002;11.854;2023-02-28T17:07:56;-1.00;99.90
46730;DHT22;32476;50.002;11.854;2023-02-28T17:10:24;-1.00;99.90
46730;DHT22;32476;50.002;11.854;2023-02-28T17:12:51;-1.00;99.90
46730;DHT22;32476;50.002;11.854;2023-02-28T17:15:19;-1.10;99.90
46730;DHT22;32476;50.002;11.854;2023-02-28T17:17:47;-1.20;99.90
46730;DHT22;32476;50.002;11.854;2023-02-28T17:20:16;-1.20;99.90
46730;DHT22;32476;50.002;11.854;2023-02-28T17:22:45;-1.20;99.90
46730;DHT22;32476;50.002;11.854;2023-02-28T17:25:11;-1.30;99.90
46730;DHT22;32476;50.002;11.854;2023-02-28T17:27:37;-1.30;99.90
46730;DHT22;32476;50.002;11.854;2023-02-28T17:32:43;-1.40;99.90
46730;DHT22;32476;50.002;11.854;2023-02-28T17:35:11;-1.50;99.90
46730;DHT22;32476;50.002;11.854;2023-02-28T17:37:37;-1.50;99.90
46730;DHT22;32476;50.002;11.854;2023-02-28T17:40:04;-1.60;99.90
46730;DHT22;32476;50.002;11.854;2023-02-28T17:42:33;-1.50;99.90
46730;DHT22;32476;50.002;11.854;2023-02-28T17:44:59;-1.60;99.90
46730;DHT22;32476;50.002;11.854;2023-02-28T17:47:25;-1.60;99.90
46730;DHT22;32476;50.002;11.854;2023-02-28T17:49:52;-1.60;99.90
46730;DHT22;32476;50.002;11.854;2023-02-28T17:52:18;-1.70;99.90
46730;DHT22;32476;50.002;11.854;2023-02-28T17:54:44;-1.70;99.90
46730;DHT22;32476;50.002;11.854;2023-02-28T17:57:14;-1.70;99.90
46730;DHT22;32476;50.002;11.854;2023-02-28T17:59:40;-1.70;99.90
46730;DHT22;32476;50.002;11.854;2023-02-28T18:02:09;-1.80;99.90